sensor_id;sensor_type;location;lat;lon;timestamp;pressure;altitude;pressure_sealevel;temperature;humidity
12785;BME280;6456;42.680;23.260;2023-02-11T00:01:59;96320.69;;;-1.01;72.70
12785;BME280;6456;42.680;23.260;2023-02-11T00:04:26;96261.59;;;-1.45;72.58
12785;BME280;6456;42.680;23.260;2023-02-11T00:06:53;96328.72;;;-1.05;72.67
12785;BME280;6456;42.680;23.260;2023-02-11T00:09:22;96286.06;;;-1.38;72.18
12785;BME280;6456;42.680;23.260;2023-02-11T00:11:49;96330.03;;;-1.12;71.08
12785;BME280;6456;42.680;23.260;2023-02-11T00:14:15;96274.16;;;-1.53;71.82
12785;BME280;6456;42.680;23.260;2023-02-11T00:16:43;96302.59;;;-1.40;72.08
12785;BME280;6456;42.680;23.260;2023-02-11T00:19:09;96326.69;;;-1.27;71.96
12785;BME280;6456;42.680;23.260;2023-02-11T00:21:36;96342.84;;;-1.23;71.82
12785;BME280;6456;42.680;23.260;2023-02-11T00:24:03;96279.38;;;-1.67;72.33
12785;BME280;6456;42.680;23.260;2023-02-11T00:26:33;96314.16;;;-1.46;72.29
12785;BME280;6456;42.680;23.260;2023-02-11T00:29:00;96331.34;;;-1.32;72.56
12785;BME280;6456;42.680;23.260;2023-02-11T00:31:28;96326.66;;;-1.40;72.68
12785;BME280;6456;42.680;23.260;2023-02-11T00:33:55;96317.97;;;-1.51;72.26
12785;BME280;6456;42.680;23.260;2023-02-11T00:36:24;96330.38;;;-1.44;72.35
12785;BME280;6456;42.680;23.260;2023-02-11T00:38:53;96282.81;;;-1.66;72.59
12785;BME280;6456;42.680;23.260;2023-02-11T00:41:20;96325.75;;;-1.39;72.64
12785;BME280;6456;42.680;23.260;2023-02-11T00:43:49;96325.03;;;-1.41;72.66
12785;BME280;6456;42.680;23.260;2023-02-11T00:46:16;96316.75;;;-1.46;72.75
12785;BME280;6456;42.680;23.260;2023-02-11T00:48:43;96324.09;;;-1.40;72.87
12785;BME280;6456;42.680;23.260;2023-02-11T00:51:10;96269.97;;;-1.68;72.77
12785;BME280;6456;42.680;23.260;2023-02-11T00:53:37;96319.88;;;-1.41;72.94
12785;BME280;6456;42.680;23.260;2023-02-11T00:56:05;96295.84;;;-1.55;72.62
12785;BME280;6456;42.680;23.260;2023-02-11T00:58:32;96307.88;;;-1.42;72.47
12785;BME280;6456;42.680;23.260;2023-02-11T01:01:00;96309.19;;;-1.49;72.24
12785;BME280;6456;42.680;23.260;2023-02-11T01:03:27;96303.31;;;-1.51;71.79
12785;BME280;6456;42.680;23.260;2023-02-11T01:05:54;96302.38;;;-1.50;71.83
12785;BME280;6456;42.680;23.260;2023-02-11T01:08:22;96308.34;;;-1.49;71.72
12785;BME280;6456;42.680;23.260;2023-02-11T01:10:54;96312.63;;;-1.48;71.91
12785;BME280;6456;42.680;23.260;2023-02-11T01:13:21;96307.53;;;-1.50;71.62
12785;BME280;6456;42.680;23.260;2023-02-11T01:15:48;96288.56;;;-1.63;71.92
12785;BME280;6456;42.680;23.260;2023-02-11T01:18:17;96309.38;;;-1.52;71.79
12785;BME280;6456;42.680;23.260;2023-02-11T01:20:44;96310.53;;;-1.56;71.97
12785;BME280;6456;42.680;23.260;2023-02-11T01:23:11;96320.84;;;-1.56;72.00
12785;BME280;6456;42.680;23.260;2023-02-11T01:25:38;96258.09;;;-1.83;72.26
12785;BME280;6456;42.680;23.260;2023-02-11T01:28:06;96258.75;;;-1.93;72.18
12785;BME280;6456;42.680;23.260;2023-02-11T01:30:36;96311.19;;;-1.66;72.43
12785;BME280;6456;42.680;23.260;2023-02-11T01:33:03;96302.63;;;-1.67;72.70
12785;BME280;6456;42.680;23.260;2023-02-11T01:35:32;96273.75;;;-1.86;72.55
12785;BME280;6456;42.680;23.260;2023-02-11T01:37:58;96296.91;;;-1.72;72.55
12785;BME280;6456;42.680;23.260;2023-02-11T01:40:25;96301.53;;;-1.77;72.54
12785;BME280;6456;42.680;23.260;2023-02-11T01:42:52;96295.56;;;-1.77;72.80
12785;BME280;6456;42.680;23.260;2023-02-11T01:45:46;96293.44;;;-1.85;72.62
12785;BME280;6456;42.680;23.260;2023-02-11T01:48:20;96286.66;;;-1.86;72.98
12785;BME280;6456;42.680;23.260;2023-02-11T01:50:51;96280.41;;;-1.96;73.17
12785;BME280;6456;42.680;23.260;2023-02-11T01:53:20;96300.75;;;-1.91;73.25
12785;BME280;6456;42.680;23.260;2023-02-11T01:56:06;96282.06;;;-1.95;73.38
12785;BME280;6456;42.680;23.260;2023-02-11T01:58:52;96286.19;;;-1.92;73.57
12785;BME280;6456;42.680;23.260;2023-02-11T02:01:22;96291.75;;;-1.99;73.79
12785;BME280;6456;42.680;23.260;2023-02-11T02:03:53;96249.72;;;-2.27;73.75
12785;BME280;6456;42.680;23.260;2023-02-11T02:06:27;96285.56;;;-1.96;73.21
12785;BME280;6456;42.680;23.260;2023-02-11T02:09:02;96275.63;;;-2.02;72.73
12785;BME280;6456;42.680;23.260;2023-02-11T02:11:30;96281.81;;;-2.05;72.68
12785;BME280;6456;42.680;23.260;2023-02-11T02:13:57;96250.84;;;-2.45;73.73
12785;BME280;6456;42.680;23.260;2023-02-11T02:16:29;96284.03;;;-2.13;73.45
12785;BME280;6456;42.680;23.260;2023-02-11T02:19:10;96265.00;;;-2.24;73.29
12785;BME280;6456;42.680;23.260;2023-02-11T02:22:02;96300.53;;;-2.15;73.42
12785;BME280;6456;42.680;23.260;2023-02-11T02:24:58;96305.91;;;-2.18;73.72
12785;BME280;6456;42.680;23.260;2023-02-11T02:27:40;96299.91;;;-2.19;73.56
12785;BME280;6456;42.680;23.260;2023-02-11T02:30:37;96254.91;;;-2.55;73.14
12785;BME280;6456;42.680;23.260;2023-02-11T02:33:12;96231.38;;;-2.64;73.14
12785;BME280;6456;42.680;23.260;2023-02-11T02:35:45;96292.72;;;-2.28;73.24
12785;BME280;6456;42.680;23.260;2023-02-11T02:38:19;96294.50;;;-2.28;73.54
12785;BME280;6456;42.680;23.260;2023-02-11T02:40:53;96263.00;;;-2.47;73.11
12785;BME280;6456;42.680;23.260;2023-02-11T02:43:25;96292.72;;;-2.28;72.97
12785;BME280;6456;42.680;23.260;2023-02-11T02:45:52;96287.47;;;-2.26;73.04
12785;BME280;6456;42.680;23.260;2023-02-11T02:48:29;96290.78;;;-2.24;72.89
12785;BME280;6456;42.680;23.260;2023-02-11T02:51:05;96290.53;;;-2.34;73.02
12785;BME280;6456;42.680;23.260;2023-02-11T02:53:44;96288.13;;;-2.37;73.05
12785;BME280;6456;42.680;23.260;2023-02-11T02:56:22;96281.03;;;-2.47;73.58
12785;BME280;6456;42.680;23.260;2023-02-11T03:01:56;96291.28;;;-2.46;73.48
12785;BME280;6456;42.680;23.260;2023-02-11T03:04:30;96258.78;;;-2.63;73.37
12785;BME280;6456;42.680;23.260;2023-02-11T03:07:06;96265.59;;;-2.62;73.07
12785;BME280;6456;42.680;23.260;2023-02-11T03:09:38;96284.47;;;-2.47;72.92
12785;BME280;6456;42.680;23.260;2023-02-11T03:12:06;96283.44;;;-2.44;73.36
12785;BME280;6456;42.680;23.260;2023-02-11T03:14:36;96267.91;;;-2.57;73.32
12785;BME280;6456;42.680;23.260;2023-02-11T03:17:05;96294.31;;;-2.39;73.32
12785;BME280;6456;42.680;23.260;2023-02-11T03:19:36;96292.44;;;-2.37;73.34
12785;BME280;6456;42.680;23.260;2023-02-11T03:22:10;96296.69;;;-2.36;73.11
12785;BME280;6456;42.680;23.260;2023-02-11T03:24:39;96284.91;;;-2.40;73.45
12785;BME280;6456;42.680;23.260;2023-02-11T03:27:09;96291.53;;;-2.36;73.51
12785;BME280;6456;42.680;23.260;2023-02-11T03:29:42;96292.28;;;-2.34;73.54
12785;BME280;6456;42.680;23.260;2023-02-11T03:32:18;96264.84;;;-2.49;73.38
12785;BME280;6456;42.680;23.260;2023-02-11T03:34:52;96286.38;;;-2.36;73.24
12785;BME280;6456;42.680;23.260;2023-02-11T03:37:24;96269.44;;;-2.40;73.41
12785;BME280;6456;42.680;23.260;2023-02-11T03:39:56;96294.56;;;-2.30;73.05
12785;BME280;6456;42.680;23.260;2023-02-11T03:42:29;96284.34;;;-2.31;72.92
12785;BME280;6456;42.680;23.260;2023-02-11T03:44:59;96289.50;;;-2.31;72.35
12785;BME280;6456;42.680;23.260;2023-02-11T03:47:30;96282.69;;;-2.32;71.66
12785;BME280;6456;42.680;23.260;2023-02-11T03:50:01;96281.13;;;-2.35;71.65
12785;BME280;6456;42.680;23.260;2023-02-11T03:52:30;96263.00;;;-2.47;71.59
12785;BME280;6456;42.680;23.260;2023-02-11T03:54:59;96292.63;;;-2.40;71.71
12785;BME280;6456;42.680;23.260;2023-02-11T03:57:28;96287.47;;;-2.40;71.41
12785;BME280;6456;42.680;23.260;2023-02-11T03:59:58;96278.19;;;-2.43;71.72
12785;BME280;6456;42.680;23.260;2023-02-11T04:02:29;96286.84;;;-2.44;71.84
12785;BME280;6456;42.680;23.260;2023-02-11T04:04:56;96281.59;;;-2.42;72.14
12785;BME280;6456;42.680;23.260;2023-02-11T04:07:25;96298.63;;;-2.40;72.30
12785;BME280;6456;42.680;23.260;2023-02-11T04:09:52;96289.50;;;-2.45;71.74
12785;BME280;6456;42.680;23.260;2023-02-11T04:12:19;96285.13;;;-2.43;71.31
12785;BME280;6456;42.680;23.260;2023-02-11T04:14:46;96265.59;;;-2.62;71.67
12785;BME280;6456;42.680;23.260;2023-02-11T04:17:13;96281.78;;;-2.45;71.85
12785;BME280;6456;42.680;23.260;2023-02-11T04:19:40;96280.13;;;-2.46;72.07
12785;BME280;6456;42.680;23.260;2023-02-11T04:22:07;96286.03;;;-2.44;72.35
12785;BME280;6456;42.680;23.260;2023-02-11T04:24:35;96286.94;;;-2.45;71.70
12785;BME280;6456;42.680;23.260;2023-02-11T04:27:03;96281.78;;;-2.45;71.76
12785;BME280;6456;42.680;23.260;2023-02-11T04:29:31;96285.13;;;-2.43;71.41
12785;BME280;6456;42.680;23.260;2023-02-11T04:31:58;96260.59;;;-2.50;70.69
12785;BME280;6456;42.680;23.260;2023-02-11T04:34:25;96255.44;;;-2.50;69.55
12785;BME280;6456;42.680;23.260;2023-02-11T04:36:53;96271.47;;;-2.45;69.84
12785;BME280;6456;42.680;23.260;2023-02-11T04:39:20;96269.19;;;-2.50;69.35
12785;BME280;6456;42.680;23.260;2023-02-11T04:41:48;96275.16;;;-2.49;69.51
12785;BME280;6456;42.680;23.260;2023-02-11T04:44:15;96271.75;;;-2.50;69.78
12785;BME280;6456;42.680;23.260;2023-02-11T04:46:42;96267.06;;;-2.58;70.32
12785;BME280;6456;42.680;23.260;2023-02-11T04:49:10;96266.25;;;-2.58;71.06
12785;BME280;6456;42.680;23.260;2023-02-11T04:51:38;96268.00;;;-2.58;71.38
12785;BME280;6456;42.680;23.260;2023-02-11T04:54:05;96272.31;;;-2.59;71.49
12785;BME280;6456;42.680;23.260;2023-02-11T04:56:32;96266.44;;;-2.61;70.73
12785;BME280;6456;42.680;23.260;2023-02-11T04:59:00;96270.75;;;-2.62;70.15
12785;BME280;6456;42.680;23.260;2023-02-11T05:01:27;96170.69;;;-3.24;70.62
12785;BME280;6456;42.680;23.260;2023-02-11T05:03:54;96244.25;;;-2.78;71.19
12785;BME280;6456;42.680;23.260;2023-02-11T05:06:21;96244.63;;;-2.84;71.42
12785;BME280;6456;42.680;23.260;2023-02-11T05:08:47;96263.31;;;-2.66;71.54
12785;BME280;6456;42.680;23.260;2023-02-11T05:11:16;96263.31;;;-2.66;70.81
12785;BME280;6456;42.680;23.260;2023-02-11T05:13:43;96251.25;;;-2.66;70.26
12785;BME280;6456;42.680;23.260;2023-02-11T05:16:12;96252.00;;;-2.64;70.63
12785;BME280;6456;42.680;23.260;2023-02-11T05:18:40;96242.22;;;-2.73;70.42
12785;BME280;6456;42.680;23.260;2023-02-11T05:21:08;96262.66;;;-2.70;71.48
12785;BME280;6456;42.680;23.260;2023-02-11T05:23:37;96257.69;;;-2.73;72.18
12785;BME280;6456;42.680;23.260;2023-02-11T05:26:04;96256.13;;;-2.75;72.47
12785;BME280;6456;42.680;23.260;2023-02-11T05:28:31;96233.31;;;-2.95;72.46
12785;BME280;6456;42.680;23.260;2023-02-11T05:30:58;96248.78;;;-2.81;72.99
12785;BME280;6456;42.680;23.260;2023-02-11T05:33:26;96250.63;;;-2.83;72.94
12785;BME280;6456;42.680;23.260;2023-02-11T05:35:57;96252.53;;;-2.87;73.50
12785;BME280;6456;42.680;23.260;2023-02-11T05:38:24;96253.00;;;-2.80;72.65
12785;BME280;6456;42.680;23.260;2023-02-11T05:40:51;96253.09;;;-2.82;72.57
12785;BME280;6456;42.680;23.260;2023-02-11T05:43:18;96238.47;;;-2.81;72.58
12785;BME280;6456;42.680;23.260;2023-02-11T05:45:45;96255.31;;;-2.76;72.47
12785;BME280;6456;42.680;23.260;2023-02-11T05:48:12;96250.34;;;-2.79;72.46
12785;BME280;6456;42.680;23.260;2023-02-11T05:50:40;96261.75;;;-2.69;73.22
12785;BME280;6456;42.680;23.260;2023-02-11T05:53:07;96231.66;;;-2.82;73.08
12785;BME280;6456;42.680;23.260;2023-02-11T05:55:34;96252.81;;;-2.63;72.90
12785;BME280;6456;42.680;23.260;2023-02-11T05:58:01;96259.00;;;-2.66;73.26
12785;BME280;6456;42.680;23.260;2023-02-11T06:00:27;96262.47;;;-2.67;73.33
12785;BME280;6456;42.680;23.260;2023-02-11T06:02:54;96270.22;;;-2.67;73.34
12785;BME280;6456;42.680;23.260;2023-02-11T06:05:21;96230.19;;;-2.86;73.29
12785;BME280;6456;42.680;23.260;2023-02-11T06:07:49;96250.22;;;-2.77;73.37
12785;BME280;6456;42.680;23.260;2023-02-11T06:10:16;96256.94;;;-2.75;73.58
12785;BME280;6456;42.680;23.260;2023-02-11T06:12:43;96271.94;;;-2.67;73.29
12785;BME280;6456;42.680;23.260;2023-02-11T06:15:10;96276.66;;;-2.74;73.97
12785;BME280;6456;42.680;23.260;2023-02-11T06:17:37;96261.81;;;-2.70;74.08
12785;BME280;6456;42.680;23.260;2023-02-11T06:20:07;96269.09;;;-2.63;74.26
12785;BME280;6456;42.680;23.260;2023-02-11T06:22:34;96276.63;;;-2.60;74.32
12785;BME280;6456;42.680;23.260;2023-02-11T06:25:04;96278.75;;;-2.52;74.45
12785;BME280;6456;42.680;23.260;2023-02-11T06:27:31;96254.84;;;-2.68;74.45
12785;BME280;6456;42.680;23.260;2023-02-11T06:29:58;96274.34;;;-2.50;74.74
12785;BME280;6456;42.680;23.260;2023-02-11T06:32:25;96273.31;;;-2.47;74.90
12785;BME280;6456;42.680;23.260;2023-02-11T06:34:52;96272.69;;;-2.51;75.55
12785;BME280;6456;42.680;23.260;2023-02-11T06:37:19;96248.13;;;-2.56;75.26
12785;BME280;6456;42.680;23.260;2023-02-11T06:39:46;96281.06;;;-2.33;74.80
12785;BME280;6456;42.680;23.260;2023-02-11T06:42:14;96284.19;;;-2.28;74.52
12785;BME280;6456;42.680;23.260;2023-02-11T06:44:41;96265.03;;;-2.38;75.06
12785;BME280;6456;42.680;23.260;2023-02-11T06:47:09;96286.22;;;-2.33;75.28
12785;BME280;6456;42.680;23.260;2023-02-11T06:49:35;96240.41;;;-2.71;75.40
12785;BME280;6456;42.680;23.260;2023-02-11T06:52:03;96252.63;;;-2.60;76.18
12785;BME280;6456;42.680;23.260;2023-02-11T06:54:29;96267.78;;;-2.41;76.65
12785;BME280;6456;42.680;23.260;2023-02-11T06:56:56;96284.53;;;-2.34;77.26
12785;BME280;6456;42.680;23.260;2023-02-11T06:59:24;96285.63;;;-2.24;76.80
12785;BME280;6456;42.680;23.260;2023-02-11T07:01:51;96286.19;;;-2.19;76.51
12785;BME280;6456;42.680;23.260;2023-02-11T07:04:18;96291.38;;;-2.33;76.74
12785;BME280;6456;42.680;23.260;2023-02-11T07:06:45;96279.09;;;-2.30;77.46
12785;BME280;6456;42.680;23.260;2023-02-11T07:09:12;96288.22;;;-2.24;77.45
12785;BME280;6456;42.680;23.260;2023-02-11T07:11:38;96271.28;;;-2.28;77.60
12785;BME280;6456;42.680;23.260;2023-02-11T07:14:06;96283.78;;;-2.22;77.67
12785;BME280;6456;42.680;23.260;2023-02-11T07:16:37;96286.91;;;-2.17;77.96
12785;BME280;6456;42.680;23.260;2023-02-11T07:19:03;96289.94;;;-2.25;77.46
12785;BME280;6456;42.680;23.260;2023-02-11T07:21:30;96276.59;;;-2.17;77.42
12785;BME280;6456;42.680;23.260;2023-02-11T07:23:57;96254.97;;;-2.29;76.95
12785;BME280;6456;42.680;23.260;2023-02-11T07:26:24;96203.19;;;-2.52;76.25
12785;BME280;6456;42.680;23.260;2023-02-11T07:28:52;96182.75;;;-2.55;77.42
12785;BME280;6456;42.680;23.260;2023-02-11T07:31:21;96266.56;;;-1.95;76.27
12785;BME280;6456;42.680;23.260;2023-02-11T07:33:50;96231.19;;;-2.20;76.15
12785;BME280;6456;42.680;23.260;2023-02-11T07:36:17;96259.78;;;-1.96;75.72
12785;BME280;6456;42.680;23.260;2023-02-11T07:38:44;96255.69;;;-1.86;75.30
12785;BME280;6456;42.680;23.260;2023-02-11T07:41:13;96185.59;;;-2.19;74.66
12785;BME280;6456;42.680;23.260;2023-02-11T07:43:40;96248.72;;;-1.71;75.53
12785;BME280;6456;42.680;23.260;2023-02-11T07:46:09;96182.91;;;-2.18;74.25
12785;BME280;6456;42.680;23.260;2023-02-11T07:48:37;96241.84;;;-1.85;74.71
12785;BME280;6456;42.680;23.260;2023-02-11T07:51:07;96224.53;;;-1.83;74.87
12785;BME280;6456;42.680;23.260;2023-02-11T07:53:34;96244.53;;;-1.86;74.76
12785;BME280;6456;42.680;23.260;2023-02-11T07:56:01;96225.31;;;-1.95;74.58
12785;BME280;6456;42.680;23.260;2023-02-11T07:58:28;96237.75;;;-1.75;73.89
12785;BME280;6456;42.680;23.260;2023-02-11T08:01:00;96244.94;;;-1.66;75.07
12785;BME280;6456;42.680;23.260;2023-02-11T08:03:27;96247.63;;;-1.55;74.86
12785;BME280;6456;42.680;23.260;2023-02-11T08:05:53;96229.13;;;-1.61;74.88
12785;BME280;6456;42.680;23.260;2023-02-11T08:08:22;96153.81;;;-1.93;76.16
12785;BME280;6456;42.680;23.260;2023-02-11T08:10:51;96237.53;;;-1.33;74.98
12785;BME280;6456;42.680;23.260;2023-02-11T08:13:18;96238.06;;;-1.15;74.02
12785;BME280;6456;42.680;23.260;2023-02-11T08:15:44;96224.44;;;-1.30;75.28
12785;BME280;6456;42.680;23.260;2023-02-11T08:18:11;96238.81;;;-1.25;75.98
12785;BME280;6456;42.680;23.260;2023-02-11T08:20:38;96237.25;;;-1.28;77.87
12785;BME280;6456;42.680;23.260;2023-02-11T08:23:05;96231.44;;;-1.44;79.17
12785;BME280;6456;42.680;23.260;2023-02-11T08:25:34;96243.66;;;-1.21;79.12
12785;BME280;6456;42.680;23.260;2023-02-11T08:28:01;96238.69;;;-1.37;81.98
12785;BME280;6456;42.680;23.260;2023-02-11T08:30:27;96240.75;;;-1.29;81.38
12785;BME280;6456;42.680;23.260;2023-02-11T08:32:54;96207.06;;;-1.27;79.96
12785;BME280;6456;42.680;23.260;2023-02-11T08:35:22;96240.25;;;-1.09;79.14
12785;BME280;6456;42.680;23.260;2023-02-11T08:37:50;96236.13;;;-1.11;80.64
12785;BME280;6456;42.680;23.260;2023-02-11T08:40:17;96237.78;;;-0.98;80.13
12785;BME280;6456;42.680;23.260;2023-02-11T08:42:46;96216.91;;;-1.07;79.13
12785;BME280;6456;42.680;23.260;2023-02-11T08:45:13;96248.53;;;-1.04;78.06
12785;BME280;6456;42.680;23.260;2023-02-11T08:47:41;96242.44;;;-1.15;77.60
12785;BME280;6456;42.680;23.260;2023-02-11T08:50:08;96234.56;;;-1.01;77.51
12785;BME280;6456;42.680;23.260;2023-02-11T08:52:35;96247.38;;;-0.87;77.33
12785;BME280;6456;42.680;23.260;2023-02-11T08:55:02;96240.34;;;-0.85;76.40
12785;BME280;6456;42.680;23.260;2023-02-11T08:57:29;96236.84;;;-0.97;74.77
12785;BME280;6456;42.680;23.260;2023-02-11T08:59:57;96249.66;;;-0.83;75.15
12785;BME280;6456;42.680;23.260;2023-02-11T09:02:24;96202.94;;;-1.17;74.58
12785;BME280;6456;42.680;23.260;2023-02-11T09:04:51;96235.69;;;-0.80;73.91
12785;BME280;6456;42.680;23.260;2023-02-11T09:07:18;96238.91;;;-0.89;74.45
12785;BME280;6456;42.680;23.260;2023-02-11T09:09:45;96142.50;;;-1.27;75.10
12785;BME280;6456;42.680;23.260;2023-02-11T09:12:12;96221.72;;;-0.78;75.01
12785;BME280;6456;42.680;23.260;2023-02-11T09:14:38;96188.47;;;-0.82;74.01
12785;BME280;6456;42.680;23.260;2023-02-11T09:17:07;96225.78;;;-0.61;72.71
12785;BME280;6456;42.680;23.260;2023-02-11T09:19:34;96235.75;;;-0.31;72.00
12785;BME280;6456;42.680;23.260;2023-02-11T09:22:01;96227.84;;;-0.30;71.94
12785;BME280;6456;42.680;23.260;2023-02-11T09:24:28;96184.19;;;-0.58;71.66
12785;BME280;6456;42.680;23.260;2023-02-11T09:26:55;96184.03;;;-0.44;71.58
12785;BME280;6456;42.680;23.260;2023-02-11T09:29:22;96194.16;;;-0.28;70.88
12785;BME280;6456;42.680;23.260;2023-02-11T09:31:49;96223.00;;;0.02;69.63
12785;BME280;6456;42.680;23.260;2023-02-11T09:34:17;96226.53;;;0.01;69.42
12785;BME280;6456;42.680;23.260;2023-02-11T09:36:44;96218.72;;;-0.10;69.79
12785;BME280;6456;42.680;23.260;2023-02-11T09:39:14;96218.63;;;0.03;69.30
12785;BME280;6456;42.680;23.260;2023-02-11T09:44:31;96205.00;;;0.00;69.17
12785;BME280;6456;42.680;23.260;2023-02-11T09:47:00;96175.03;;;-0.15;70.23
12785;BME280;6456;42.680;23.260;2023-02-11T09:49:34;96182.59;;;0.12;70.57
12785;BME280;6456;42.680;23.260;2023-02-11T09:52:07;96137.50;;;0.04;68.61
12785;BME280;6456;42.680;23.260;2023-02-11T09:54:47;96178.81;;;0.40;65.84
12785;BME280;6456;42.680;23.260;2023-02-11T09:57:15;96165.63;;;0.43;63.37
12785;BME280;6456;42.680;23.260;2023-02-11T09:59:41;96175.00;;;0.68;64.07
12785;BME280;6456;42.680;23.260;2023-02-11T10:02:15;96153.69;;;0.64;64.35
12785;BME280;6456;42.680;23.260;2023-02-11T10:05:08;96129.38;;;0.43;64.02
12785;BME280;6456;42.680;23.260;2023-02-11T10:07:43;96080.44;;;0.05;58.54
12785;BME280;6456;42.680;23.260;2023-02-11T10:10:26;96159.69;;;0.76;58.69
12785;BME280;6456;42.680;23.260;2023-02-11T10:13:11;96147.47;;;0.78;58.98
12785;BME280;6456;42.680;23.260;2023-02-11T10:15:48;96147.47;;;0.89;60.73
12785;BME280;6456;42.680;23.260;2023-02-11T10:18:39;96113.31;;;0.84;60.97
12785;BME280;6456;42.680;23.260;2023-02-11T10:21:17;96133.22;;;1.05;58.57
12785;BME280;6456;42.680;23.260;2023-02-11T10:23:49;96128.63;;;1.09;60.67
12785;BME280;6456;42.680;23.260;2023-02-11T10:26:18;96126.03;;;1.20;59.51
12785;BME280;6456;42.680;23.260;2023-02-11T10:28:47;96096.09;;;1.27;59.23
12785;BME280;6456;42.680;23.260;2023-02-11T10:31:18;96095.72;;;1.43;59.51
12785;BME280;6456;42.680;23.260;2023-02-11T10:33:52;96079.56;;;1.39;58.16
12785;BME280;6456;42.680;23.260;2023-02-11T10:36:37;96095.22;;;1.49;56.50
12785;BME280;6456;42.680;23.260;2023-02-11T10:39:11;96093.31;;;1.51;56.10
12785;BME280;6456;42.680;23.260;2023-02-11T10:41:43;96077.28;;;1.57;57.09
12785;BME280;6456;42.680;23.260;2023-02-11T10:44:20;96051.50;;;1.44;56.31
12785;BME280;6456;42.680;23.260;2023-02-11T10:46:48;96053.22;;;1.55;57.88
12785;BME280;6456;42.680;23.260;2023-02-11T10:49:34;96068.75;;;1.66;56.84
12785;BME280;6456;42.680;23.260;2023-02-11T10:52:16;96055.53;;;1.69;57.95
12785;BME280;6456;42.680;23.260;2023-02-11T10:54:55;96048.19;;;1.74;58.95
12785;BME280;6456;42.680;23.260;2023-02-11T10:57:26;96054.22;;;1.74;57.90
12785;BME280;6456;42.680;23.260;2023-02-11T10:59:57;96055.06;;;1.75;59.03
12785;BME280;6456;42.680;23.260;2023-02-11T11:02:29;96032.16;;;1.80;57.39
12785;BME280;6456;42.680;23.260;2023-02-11T11:05:00;96037.25;;;1.91;59.40
12785;BME280;6456;42.680;23.260;2023-02-11T11:07:30;95991.28;;;1.61;57.83
12785;BME280;6456;42.680;23.260;2023-02-11T11:10:00;96040.44;;;1.94;58.20
12785;BME280;6456;42.680;23.260;2023-02-11T11:12:34;96028.09;;;1.87;55.92
12785;BME280;6456;42.680;23.260;2023-02-11T11:15:15;96031.19;;;2.02;54.42
12785;BME280;6456;42.680;23.260;2023-02-11T11:17:43;96032.09;;;2.12;55.47
12785;BME280;6456;42.680;23.260;2023-02-11T11:20:22;96022.78;;;2.09;55.87
12785;BME280;6456;42.680;23.260;2023-02-11T11:23:07;96029.09;;;2.16;56.26
12785;BME280;6456;42.680;23.260;2023-02-11T11:25:37;96016.56;;;2.21;56.12
12785;BME280;6456;42.680;23.260;2023-02-11T11:28:05;95996.31;;;2.15;55.78
12785;BME280;6456;42.680;23.260;2023-02-11T11:30:43;96007.63;;;2.35;56.21
12785;BME280;6456;42.680;23.260;2023-02-11T11:33:18;96010.72;;;2.49;55.66
12785;BME280;6456;42.680;23.260;2023-02-11T11:35:56;95983.28;;;2.36;56.25
12785;BME280;6456;42.680;23.260;2023-02-11T11:38:26;96003.94;;;2.58;54.97
12785;BME280;6456;42.680;23.260;2023-02-11T11:41:24;96010.94;;;2.67;54.08
12785;BME280;6456;42.680;23.260;2023-02-11T11:44:00;96005.34;;;2.72;52.50
12785;BME280;6456;42.680;23.260;2023-02-11T11:46:31;96002.59;;;2.73;52.49
12785;BME280;6456;42.680;23.260;2023-02-11T11:49:05;96018.38;;;2.91;52.74
12785;BME280;6456;42.680;23.260;2023-02-11T11:51:35;95994.78;;;2.73;52.63
12785;BME280;6456;42.680;23.260;2023-02-11T11:54:11;96000.00;;;2.73;51.80
12785;BME280;6456;42.680;23.260;2023-02-11T11:56:42;95993.34;;;2.80;51.18
12785;BME280;6456;42.680;23.260;2023-02-11T11:59:13;95999.69;;;2.97;51.55
12785;BME280;6456;42.680;23.260;2023-02-11T12:01:51;95994.06;;;3.01;50.78
12785;BME280;6456;42.680;23.260;2023-02-11T12:04:46;95978.63;;;3.00;49.19
12785;BME280;6456;42.680;23.260;2023-02-11T12:07:26;95965.34;;;3.03;48.64
12785;BME280;6456;42.680;23.260;2023-02-11T12:10:21;95974.69;;;3.15;50.37
12785;BME280;6456;42.680;23.260;2023-02-11T12:12:54;95945.25;;;3.14;50.58
12785;BME280;6456;42.680;23.260;2023-02-11T12:15:31;95971.53;;;3.21;49.88
12785;BME280;6456;42.680;23.260;2023-02-11T12:18:10;95958.94;;;3.26;46.24
12785;BME280;6456;42.680;23.260;2023-02-11T12:20:54;95951.69;;;3.30;43.11
12785;BME280;6456;42.680;23.260;2023-02-11T12:23:34;95905.25;;;3.06;45.22
12785;BME280;6456;42.680;23.260;2023-02-11T12:26:10;95884.19;;;2.99;45.92
12785;BME280;6456;42.680;23.260;2023-02-11T12:28:48;95887.72;;;2.98;46.71
12785;BME280;6456;42.680;23.260;2023-02-11T12:31:28;95890.22;;;3.09;46.41
12785;BME280;6456;42.680;23.260;2023-02-11T12:34:27;95924.47;;;3.43;48.02
12785;BME280;6456;42.680;23.260;2023-02-11T12:37:05;95880.63;;;3.29;48.43
12785;BME280;6456;42.680;23.260;2023-02-11T12:39:42;95876.50;;;3.36;49.62
12785;BME280;6456;42.680;23.260;2023-02-11T12:42:35;95917.56;;;3.80;47.74
12785;BME280;6456;42.680;23.260;2023-02-11T12:45:38;95869.09;;;3.60;45.28
12785;BME280;6456;42.680;23.260;2023-02-11T12:48:20;95907.38;;;3.97;46.23
12785;BME280;6456;42.680;23.260;2023-02-11T12:50:55;95879.19;;;3.82;46.71
12785;BME280;6456;42.680;23.260;2023-02-11T12:53:44;95918.59;;;4.07;45.85
12785;BME280;6456;42.680;23.260;2023-02-11T12:56:19;95861.38;;;3.68;44.78
12785;BME280;6456;42.680;23.260;2023-02-11T12:58:51;95862.78;;;3.72;44.73
12785;BME280;6456;42.680;23.260;2023-02-11T13:01:23;95877.09;;;3.96;44.64
12785;BME280;6456;42.680;23.260;2023-02-11T13:03:54;95892.69;;;4.05;43.71
12785;BME280;6456;42.680;23.260;2023-02-11T13:06:28;95904.19;;;4.12;42.25
12785;BME280;6456;42.680;23.260;2023-02-11T13:09:00;95884.50;;;4.00;42.58
12785;BME280;6456;42.680;23.260;2023-02-11T13:11:31;95892.53;;;4.07;43.35
12785;BME280;6456;42.680;23.260;2023-02-11T13:14:05;95889.13;;;4.16;43.28
12785;BME280;6456;42.680;23.260;2023-02-11T13:16:37;95864.59;;;3.99;43.49
12785;BME280;6456;42.680;23.260;2023-02-11T13:19:16;95849.97;;;3.88;43.30
12785;BME280;6456;42.680;23.260;2023-02-11T13:21:51;95890.06;;;4.15;43.53
12785;BME280;6456;42.680;23.260;2023-02-11T13:24:26;95863.06;;;4.06;43.55
12785;BME280;6456;42.680;23.260;2023-02-11T13:27:06;95859.75;;;4.14;42.00
12785;BME280;6456;42.680;23.260;2023-02-11T13:29:48;95835.44;;;3.96;42.50